Decoded Metar for ULAA (ARHANGELSK in RUSSIA) (IATA:N/A) | Meteo·Mobile Aviation Weather
aviador You're here:

ULAA Decoded Metar

ARHANGELSK in RUSSIA
Report Time2018-10-22 23:00:00
UTC Time2018-10-22 23:26:35
Flight Rules vfr VFR
Wind260° at 10 kt
W.Decomp.*RWY 26: 9.7 kt HW 2.6 kt LCW
W.Rank260° ranks 11
Current wind is above 260° avg. (7.5)
Visibility9999 m
Phenomena:N/A
Clouds:Scattered 026 Hf
Expected CloudBase > 800 ft AGL from Temp-Dew spread
CeilingNone
Temp04°C (ISA -11)
Dew Point02°C (87% RH)
AAT-1.3°C
QNH0994 hPa
Density Alt-505 ft
Elevation62 ft
Report Wrong Elevation
Raw Report
ULAA 222300Z 26005MPS 230V300 9999 SCT026 04/02 Q0994 R26/290060
NOSIG RMK QFE744/0992=

Extra information for ULAA:More info

Metar Taf Metar & Taf Last 4 Metars F.Rules Stats Wind Profile Meteogram Temp Stats Airport Information Weather charts Add Link Nearby VenuesMetar ALERT Operation Metar Decoded Social comments